sensor_id;sensor_type;location;lat;lon;timestamp;pressure;altitude;pressure_sealevel;temperature;humidity
69316;BME280;56445;43.552;5.034;2023-01-31T00:01:50;101828.16;;;21.62;23.05
69316;BME280;56445;43.552;5.034;2023-01-31T00:04:17;101829.25;;;21.61;23.25
69316;BME280;56445;43.552;5.034;2023-01-31T07:32:44;102269.72;;;21.03;23.96
69316;BME280;56445;43.552;5.034;2023-01-31T07:35:55;102288.06;;;21.14;23.58
69316;BME280;56445;43.552;5.034;2023-01-31T07:46:39;102298.78;;;21.27;23.68
69316;BME280;56445;43.552;5.034;2023-01-31T07:53:02;102327.75;;;21.47;23.47
69316;BME280;56445;43.552;5.034;2023-01-31T08:06:58;102353.88;;;21.78;23.66
69316;BME280;56445;43.552;5.034;2023-01-31T08:14:04;102367.47;;;21.85;23.82
69316;BME280;56445;43.552;5.034;2023-01-31T10:26:01;102528.38;;;34.52;21.95
69316;BME280;56445;43.552;5.034;2023-01-31T10:32:28;102493.94;;;32.11;22.27
69316;BME280;56445;43.552;5.034;2023-01-31T10:35:41;102489.13;;;31.34;22.34
69316;BME280;56445;43.552;5.034;2023-01-31T10:38:39;102484.88;;;30.76;22.05
69316;BME280;56445;43.552;5.034;2023-01-31T10:45:02;102470.38;;;29.65;22.04
69316;BME280;56445;43.552;5.034;2023-01-31T10:54:36;102497.03;;;29.66;22.39
69316;BME280;56445;43.552;5.034;2023-01-31T12:45:50;102465.81;;;53.60;17.22
69316;BME280;56445;43.552;5.034;2023-01-31T12:56:40;102453.84;;;53.70;17.16
69316;BME280;56445;43.552;5.034;2023-01-31T12:59:46;102434.84;;;53.51;16.77
69316;BME280;56445;43.552;5.034;2023-01-31T13:02:51;102457.63;;;51.93;16.98
69316;BME280;56445;43.552;5.034;2023-01-31T13:05:30;102443.28;;;48.19;17.26
69316;BME280;56445;43.552;5.034;2023-01-31T13:08:17;102417.56;;;45.56;17.71
69316;BME280;56445;43.552;5.034;2023-01-31T13:13:30;102411.13;;;41.56;17.76
69316;BME280;56445;43.552;5.034;2023-01-31T13:16:19;102423.38;;;40.18;17.84
69316;BME280;56445;43.552;5.034;2023-01-31T13:18:51;102433.06;;;39.07;17.97
69316;BME280;56445;43.552;5.034;2023-01-31T13:21:23;102400.94;;;38.20;17.87
69316;BME280;56445;43.552;5.034;2023-01-31T13:24:08;102403.69;;;37.76;18.12
69316;BME280;56445;43.552;5.034;2023-01-31T13:29:39;102396.28;;;41.66;17.53
69316;BME280;56445;43.552;5.034;2023-01-31T13:32:31;102419.72;;;42.75;17.69
69316;BME280;56445;43.552;5.034;2023-01-31T13:35:20;102410.06;;;42.01;17.29
69316;BME280;56445;43.552;5.034;2023-01-31T13:37:52;102383.19;;;40.28;17.91
69316;BME280;56445;43.552;5.034;2023-01-31T13:40:25;102406.75;;;39.03;18.07
69316;BME280;56445;43.552;5.034;2023-01-31T13:42:54;102406.56;;;37.92;18.32
69316;BME280;56445;43.552;5.034;2023-01-31T13:45:34;102405.31;;;36.99;18.14
69316;BME280;56445;43.552;5.034;2023-01-31T13:48:08;102396.88;;;36.29;17.99
69316;BME280;56445;43.552;5.034;2023-01-31T13:50:45;102371.53;;;35.83;17.85
69316;BME280;56445;43.552;5.034;2023-01-31T13:53:31;102379.81;;;36.46;17.58
69316;BME280;56445;43.552;5.034;2023-01-31T13:56:01;102395.41;;;37.95;17.38
69316;BME280;56445;43.552;5.034;2023-01-31T13:58:32;102390.06;;;39.69;17.07
69316;BME280;56445;43.552;5.034;2023-01-31T14:01:03;102381.38;;;41.12;16.93
69316;BME280;56445;43.552;5.034;2023-01-31T14:09:36;102399.44;;;44.49;16.89
69316;BME280;56445;43.552;5.034;2023-01-31T14:14:39;102407.16;;;46.05;17.13
69316;BME280;56445;43.552;5.034;2023-01-31T14:17:13;102405.16;;;46.58;16.52
69316;BME280;56445;43.552;5.034;2023-01-31T14:22:18;102410.00;;;47.40;16.48
69316;BME280;56445;43.552;5.034;2023-01-31T14:37:57;102405.94;;;48.26;16.61
69316;BME280;56445;43.552;5.034;2023-01-31T14:49:05;102410.22;;;48.15;16.12
69316;BME280;56445;43.552;5.034;2023-01-31T14:57:16;102420.25;;;47.72;15.73
69316;BME280;56445;43.552;5.034;2023-01-31T14:59:52;102411.91;;;47.51;16.15
69316;BME280;56445;43.552;5.034;2023-01-31T15:05:08;102403.00;;;47.11;16.20
69316;BME280;56445;43.552;5.034;2023-01-31T15:07:36;102408.44;;;46.98;16.01
69316;BME280;56445;43.552;5.034;2023-01-31T15:11:01;102402.88;;;46.83;16.16
69316;BME280;56445;43.552;5.034;2023-01-31T15:13:36;102395.88;;;46.43;16.27
69316;BME280;56445;43.552;5.034;2023-01-31T15:16:28;102400.13;;;46.20;16.03
69316;BME280;56445;43.552;5.034;2023-01-31T15:19:06;102401.38;;;45.17;16.21
69316;BME280;56445;43.552;5.034;2023-01-31T15:21:48;102404.59;;;43.12;16.25
69316;BME280;56445;43.552;5.034;2023-01-31T15:24:53;102398.19;;;41.01;16.65
69316;BME280;56445;43.552;5.034;2023-01-31T15:27:26;102402.56;;;39.48;16.89
69316;BME280;56445;43.552;5.034;2023-01-31T15:32:41;102406.84;;;37.21;16.87
69316;BME280;56445;43.552;5.034;2023-01-31T15:35:26;102392.44;;;36.07;16.88
69316;BME280;56445;43.552;5.034;2023-01-31T15:38:25;102394.94;;;35.15;16.97
69316;BME280;56445;43.552;5.034;2023-01-31T15:46:46;102385.66;;;32.93;17.07
69316;BME280;56445;43.552;5.034;2023-01-31T15:49:31;102391.22;;;32.53;17.31
69316;BME280;56445;43.552;5.034;2023-01-31T15:52:20;102374.41;;;31.99;17.06
69316;BME280;56445;43.552;5.034;2023-01-31T15:55:01;102388.47;;;31.72;17.49
69316;BME280;56445;43.552;5.034;2023-01-31T15:57:41;102382.81;;;31.35;17.43
69316;BME280;56445;43.552;5.034;2023-01-31T16:00:19;102385.63;;;31.21;17.24
69316;BME280;56445;43.552;5.034;2023-01-31T16:02:48;102376.53;;;30.88;17.32
69316;BME280;56445;43.552;5.034;2023-01-31T16:05:20;102376.22;;;30.76;17.09
69316;BME280;56445;43.552;5.034;2023-01-31T16:07:48;102409.13;;;30.74;17.47
69316;BME280;56445;43.552;5.034;2023-01-31T16:10:15;102409.72;;;30.57;17.50
69316;BME280;56445;43.552;5.034;2023-01-31T16:12:46;102393.97;;;30.33;16.94
69316;BME280;56445;43.552;5.034;2023-01-31T16:15:19;102403.31;;;30.23;17.13
69316;BME280;56445;43.552;5.034;2023-01-31T16:17:48;102417.47;;;30.08;17.24
69316;BME280;56445;43.552;5.034;2023-01-31T16:20:52;102408.38;;;29.83;17.36
69316;BME280;56445;43.552;5.034;2023-01-31T16:23:33;102426.63;;;29.71;17.52
69316;BME280;56445;43.552;5.034;2023-01-31T16:26:07;102413.50;;;29.52;17.25
69316;BME280;56445;43.552;5.034;2023-01-31T16:31:10;102418.00;;;29.29;17.34
69316;BME280;56445;43.552;5.034;2023-01-31T16:33:54;102424.81;;;29.18;17.31
69316;BME280;56445;43.552;5.034;2023-01-31T16:39:05;102424.53;;;28.90;17.25
69316;BME280;56445;43.552;5.034;2023-01-31T16:41:47;102402.56;;;28.64;17.35
69316;BME280;56445;43.552;5.034;2023-01-31T16:44:20;102424.19;;;28.67;17.12
69316;BME280;56445;43.552;5.034;2023-01-31T16:46:49;102421.50;;;28.57;17.52
69316;BME280;56445;43.552;5.034;2023-01-31T16:49:26;102419.41;;;28.39;17.41
69316;BME280;56445;43.552;5.034;2023-01-31T16:54:52;102435.16;;;28.14;17.67
69316;BME280;56445;43.552;5.034;2023-01-31T16:57:21;102425.25;;;28.03;17.12
69316;BME280;56445;43.552;5.034;2023-01-31T16:59:52;102391.28;;;27.77;17.17
69316;BME280;56445;43.552;5.034;2023-01-31T17:02:23;102402.16;;;27.63;17.38
69316;BME280;56445;43.552;5.034;2023-01-31T17:04:54;102413.88;;;27.49;17.38
69316;BME280;56445;43.552;5.034;2023-01-31T17:09:57;102444.38;;;27.44;17.47
69316;BME280;56445;43.552;5.034;2023-01-31T17:12:28;102442.78;;;27.33;17.58
69316;BME280;56445;43.552;5.034;2023-01-31T17:14:56;102434.44;;;27.23;17.38
69316;BME280;56445;43.552;5.034;2023-01-31T17:17:31;102408.75;;;27.02;17.24
69316;BME280;56445;43.552;5.034;2023-01-31T17:20:00;102404.06;;;26.87;17.57
69316;BME280;56445;43.552;5.034;2023-01-31T17:22:27;102416.81;;;26.83;17.37
69316;BME280;56445;43.552;5.034;2023-01-31T17:24:55;102419.03;;;26.76;17.38
69316;BME280;56445;43.552;5.034;2023-01-31T17:27:22;102411.88;;;26.59;17.36
69316;BME280;56445;43.552;5.034;2023-01-31T17:29:50;102401.31;;;26.46;17.26
69316;BME280;56445;43.552;5.034;2023-01-31T17:32:19;102421.28;;;26.58;17.61
69316;BME280;56445;43.552;5.034;2023-01-31T17:34:47;102415.44;;;26.49;17.36
69316;BME280;56445;43.552;5.034;2023-01-31T17:37:15;102397.72;;;26.30;17.33
69316;BME280;56445;43.552;5.034;2023-01-31T17:39:53;102390.81;;;26.17;17.51
69316;BME280;56445;43.552;5.034;2023-01-31T17:42:57;102396.91;;;26.09;17.31
69316;BME280;56445;43.552;5.034;2023-01-31T17:45:45;102401.84;;;25.97;17.57
69316;BME280;56445;43.552;5.034;2023-01-31T17:48:19;102393.25;;;25.88;17.58
69316;BME280;56445;43.552;5.034;2023-01-31T17:51:00;102411.78;;;25.87;17.53
69316;BME280;56445;43.552;5.034;2023-01-31T17:53:30;102388.75;;;25.66;17.33
69316;BME280;56445;43.552;5.034;2023-01-31T17:56:15;102423.63;;;25.78;17.58
69316;BME280;56445;43.552;5.034;2023-01-31T17:58:45;102420.84;;;25.72;17.42
69316;BME280;56445;43.552;5.034;2023-01-31T18:05:13;102404.66;;;25.28;17.77
69316;BME280;56445;43.552;5.034;2023-01-31T18:07:50;102409.66;;;25.37;17.79
69316;BME280;56445;43.552;5.034;2023-01-31T18:10:18;102398.56;;;25.31;17.73
69316;BME280;56445;43.552;5.034;2023-01-31T18:12:46;102401.91;;;25.33;17.66
69316;BME280;56445;43.552;5.034;2023-01-31T18:15:24;102399.13;;;25.33;17.63
69316;BME280;56445;43.552;5.034;2023-01-31T18:17:58;102392.25;;;25.36;17.98
69316;BME280;56445;43.552;5.034;2023-01-31T18:20:49;102395.03;;;25.36;17.81
69316;BME280;56445;43.552;5.034;2023-01-31T18:23:27;102384.75;;;25.26;17.88
69316;BME280;56445;43.552;5.034;2023-01-31T18:26:09;102400.50;;;25.31;17.42
69316;BME280;56445;43.552;5.034;2023-01-31T18:28:45;102411.81;;;25.29;17.65
69316;BME280;56445;43.552;5.034;2023-01-31T18:31:27;102407.97;;;25.30;17.67
69316;BME280;56445;43.552;5.034;2023-01-31T18:33:58;102424.59;;;25.41;17.80
69316;BME280;56445;43.552;5.034;2023-01-31T18:36:35;102408.03;;;25.41;18.14
69316;BME280;56445;43.552;5.034;2023-01-31T18:39:09;102370.06;;;25.21;17.66
69316;BME280;56445;43.552;5.034;2023-01-31T18:41:59;102408.84;;;25.41;17.78
69316;BME280;56445;43.552;5.034;2023-01-31T18:44:38;102368.94;;;25.17;17.87
69316;BME280;56445;43.552;5.034;2023-01-31T18:47:10;102370.84;;;25.11;17.68
69316;BME280;56445;43.552;5.034;2023-01-31T18:49:54;102382.19;;;25.14;18.11
69316;BME280;56445;43.552;5.034;2023-01-31T18:55:44;102404.66;;;25.33;17.70
69316;BME280;56445;43.552;5.034;2023-01-31T18:58:25;102401.63;;;25.30;17.84
69316;BME280;56445;43.552;5.034;2023-01-31T19:01:53;102356.16;;;25.00;17.71
69316;BME280;56445;43.552;5.034;2023-01-31T19:04:42;102374.38;;;25.01;17.80
69316;BME280;56445;43.552;5.034;2023-01-31T19:07:47;102359.13;;;24.88;17.94
69316;BME280;56445;43.552;5.034;2023-01-31T19:10:45;102366.03;;;24.91;17.88
69316;BME280;56445;43.552;5.034;2023-01-31T19:20:34;102367.13;;;24.85;17.93
69316;BME280;56445;43.552;5.034;2023-01-31T19:23:15;102348.00;;;24.73;18.20
69316;BME280;56445;43.552;5.034;2023-01-31T19:29:30;102361.56;;;24.80;18.21
69316;BME280;56445;43.552;5.034;2023-01-31T19:32:30;102375.13;;;24.86;18.13
69316;BME280;56445;43.552;5.034;2023-01-31T19:35:31;102379.81;;;24.86;18.25
69316;BME280;56445;43.552;5.034;2023-01-31T19:38:06;102339.63;;;24.58;18.21
69316;BME280;56445;43.552;5.034;2023-01-31T19:41:11;102347.66;;;24.64;18.21
69316;BME280;56445;43.552;5.034;2023-01-31T19:44:04;102329.09;;;24.54;18.03
69316;BME280;56445;43.552;5.034;2023-01-31T19:46:55;102336.56;;;24.54;18.09
69316;BME280;56445;43.552;5.034;2023-01-31T19:49:39;102372.03;;;24.78;18.05
69316;BME280;56445;43.552;5.034;2023-01-31T19:52:13;102352.41;;;24.69;18.31
69316;BME280;56445;43.552;5.034;2023-01-31T19:58:42;102333.28;;;24.57;18.36
69316;BME280;56445;43.552;5.034;2023-01-31T20:05:31;102339.56;;;24.52;18.11
69316;BME280;56445;43.552;5.034;2023-01-31T20:08:16;102329.56;;;24.41;18.26
69316;BME280;56445;43.552;5.034;2023-01-31T20:10:55;102334.75;;;24.38;18.18
69316;BME280;56445;43.552;5.034;2023-01-31T20:13:23;102350.78;;;24.41;18.55
69316;BME280;56445;43.552;5.034;2023-01-31T20:16:13;102337.41;;;24.22;18.29
69316;BME280;56445;43.552;5.034;2023-01-31T20:18:51;102343.41;;;24.14;18.47
69316;BME280;56445;43.552;5.034;2023-01-31T20:22:14;102344.03;;;24.26;18.55
69316;BME280;56445;43.552;5.034;2023-01-31T20:25:19;102375.75;;;24.56;18.59
69316;BME280;56445;43.552;5.034;2023-01-31T20:28:19;102363.94;;;24.61;18.48
69316;BME280;56445;43.552;5.034;2023-01-31T20:31:25;102375.34;;;24.80;18.41
69316;BME280;56445;43.552;5.034;2023-01-31T20:45:23;102375.09;;;24.81;18.53
69316;BME280;56445;43.552;5.034;2023-01-31T20:52:07;102382.19;;;24.67;18.34
69316;BME280;56445;43.552;5.034;2023-01-31T21:03:28;102361.34;;;24.17;18.25
69316;BME280;56445;43.552;5.034;2023-01-31T21:20:45;102356.88;;;24.10;18.67
69316;BME280;56445;43.552;5.034;2023-01-31T21:27:49;102334.72;;;24.00;18.68
69316;BME280;56445;43.552;5.034;2023-01-31T21:31:25;102340.47;;;23.93;18.46
69316;BME280;56445;43.552;5.034;2023-01-31T21:34:27;102345.09;;;23.88;18.58
69316;BME280;56445;43.552;5.034;2023-01-31T21:37:31;102338.03;;;23.75;18.59
69316;BME280;56445;43.552;5.034;2023-01-31T21:40:16;102349.88;;;23.75;18.57
69316;BME280;56445;43.552;5.034;2023-01-31T21:42:43;102385.91;;;23.91;18.50
69316;BME280;56445;43.552;5.034;2023-01-31T21:45:10;102372.28;;;23.79;18.68
69316;BME280;56445;43.552;5.034;2023-01-31T21:47:37;102352.38;;;23.77;18.57
69316;BME280;56445;43.552;5.034;2023-01-31T21:50:25;102370.41;;;23.85;18.52
69316;BME280;56445;43.552;5.034;2023-01-31T21:52:52;102351.56;;;23.76;18.67
69316;BME280;56445;43.552;5.034;2023-01-31T21:55:19;102354.66;;;23.80;18.84
69316;BME280;56445;43.552;5.034;2023-01-31T21:57:48;102332.69;;;23.63;18.53
69316;BME280;56445;43.552;5.034;2023-01-31T22:00:15;102340.94;;;23.63;18.67
69316;BME280;56445;43.552;5.034;2023-01-31T22:02:52;102341.66;;;23.53;18.74
69316;BME280;56445;43.552;5.034;2023-01-31T22:05:19;102337.75;;;23.49;18.72
69316;BME280;56445;43.552;5.034;2023-01-31T22:07:46;102325.03;;;23.43;18.89
69316;BME280;56445;43.552;5.034;2023-01-31T22:10:14;102352.69;;;23.53;18.81
69316;BME280;56445;43.552;5.034;2023-01-31T22:12:45;102351.41;;;23.61;18.90
69316;BME280;56445;43.552;5.034;2023-01-31T22:15:12;102320.66;;;23.47;18.98
69316;BME280;56445;43.552;5.034;2023-01-31T22:17:52;102345.94;;;23.66;18.94
69316;BME280;56445;43.552;5.034;2023-01-31T22:20:21;102345.06;;;23.61;18.88
69316;BME280;56445;43.552;5.034;2023-01-31T22:22:49;102341.66;;;23.53;19.08
69316;BME280;56445;43.552;5.034;2023-01-31T22:25:16;102337.84;;;23.54;18.80
69316;BME280;56445;43.552;5.034;2023-01-31T22:27:44;102340.06;;;23.58;18.80
69316;BME280;56445;43.552;5.034;2023-01-31T22:30:11;102359.97;;;23.65;18.88
69316;BME280;56445;43.552;5.034;2023-01-31T22:32:42;102359.34;;;23.58;18.84
69316;BME280;56445;43.552;5.034;2023-01-31T22:35:14;102344.38;;;23.48;18.80
69316;BME280;56445;43.552;5.034;2023-01-31T22:37:46;102350.47;;;23.50;18.84
69316;BME280;56445;43.552;5.034;2023-01-31T22:40:13;102370.50;;;23.68;18.79
69316;BME280;56445;43.552;5.034;2023-01-31T22:42:43;102371.31;;;23.68;18.75
69316;BME280;56445;43.552;5.034;2023-01-31T22:45:15;102357.81;;;23.67;18.86
69316;BME280;56445;43.552;5.034;2023-01-31T22:47:42;102362.22;;;23.68;18.72
69316;BME280;56445;43.552;5.034;2023-01-31T22:50:09;102338.66;;;23.55;19.01
69316;BME280;56445;43.552;5.034;2023-01-31T22:52:36;102362.81;;;23.70;18.91
69316;BME280;56445;43.552;5.034;2023-01-31T22:55:04;102357.88;;;23.72;18.81
69316;BME280;56445;43.552;5.034;2023-01-31T22:57:31;102334.53;;;23.58;18.60
69316;BME280;56445;43.552;5.034;2023-01-31T22:59:59;102360.88;;;23.70;18.75
69316;BME280;56445;43.552;5.034;2023-01-31T23:02:26;102365.81;;;23.68;18.92
69316;BME280;56445;43.552;5.034;2023-01-31T23:04:53;102362.66;;;23.60;18.76
69316;BME280;56445;43.552;5.034;2023-01-31T23:07:20;102373.19;;;23.63;19.00
69316;BME280;56445;43.552;5.034;2023-01-31T23:09:47;102377.03;;;23.62;19.04
69316;BME280;56445;43.552;5.034;2023-01-31T23:12:14;102336.25;;;23.36;19.13
69316;BME280;56445;43.552;5.034;2023-01-31T23:14:45;102378.38;;;23.59;19.02
69316;BME280;56445;43.552;5.034;2023-01-31T23:17:12;102379.19;;;23.60;19.03
69316;BME280;56445;43.552;5.034;2023-01-31T23:19:57;102361.41;;;23.45;18.86
69316;BME280;56445;43.552;5.034;2023-01-31T23:22:25;102349.19;;;23.36;18.79
69316;BME280;56445;43.552;5.034;2023-01-31T23:25:07;102328.47;;;23.28;18.84
69316;BME280;56445;43.552;5.034;2023-01-31T23:27:39;102348.09;;;23.37;18.80
69316;BME280;56445;43.552;5.034;2023-01-31T23:30:30;102327.00;;;23.21;19.09
69316;BME280;56445;43.552;5.034;2023-01-31T23:33:48;102324.34;;;23.09;19.08
69316;BME280;56445;43.552;5.034;2023-01-31T23:36:26;102357.31;;;23.26;18.82
69316;BME280;56445;43.552;5.034;2023-01-31T23:39:02;102346.06;;;23.27;19.00
69316;BME280;56445;43.552;5.034;2023-01-31T23:42:02;102345.56;;;23.30;19.05
69316;BME280;56445;43.552;5.034;2023-01-31T23:44:42;102332.59;;;23.31;18.85
69316;BME280;56445;43.552;5.034;2023-01-31T23:47:40;102335.94;;;23.33;18.90
69316;BME280;56445;43.552;5.034;2023-01-31T23:53:57;102307.50;;;23.05;19.23
69316;BME280;56445;43.552;5.034;2023-01-31T23:56:50;102302.00;;;23.05;19.09
69316;BME280;56445;43.552;5.034;2023-01-31T23:59:49;102283.00;;;23.04;19.16
